Time;durP1;ratioP1;P1;durP2;ratioP2;P2;SDS_P1;SDS_P2;PMS_P1;PMS_P2;Temp;Humidity;BMP_temperature;BMP_pressure;BME280_temperature;BME280_humidity;BME280_pressure;Samples;Min_cycle;Max_cycle;Signal;HPM_P1;HPM_P2
2021/06/05 00:01:02;;;;;;;5.60;3.00;;;13.20;99.90;;;;;;4360317;32;20077;-66
2021/06/05 00:03:28;;;;;;;5.20;2.70;;;13.20;99.90;;;;;;4325966;32;20101;-65
2021/06/05 00:05:58;;;;;;;5.35;2.70;;;13.20;99.90;;;;;;4331590;32;20107;-66
2021/06/05 00:08:30;;;;;;;5.65;2.75;;;13.20;99.90;;;;;;4331434;32;20098;-66
2021/06/05 00:11:01;;;;;;;6.00;2.95;;;13.20;99.90;;;;;;4348582;32;20437;-66
2021/06/05 00:13:40;;;;;;;5.22;2.70;;;13.20;99.90;;;;;;4336104;32;20086;-66
2021/06/05 00:16:09;;;;;;;4.93;2.92;;;13.20;99.90;;;;;;4329963;32;20110;-66
2021/06/05 00:18:35;;;;;;;4.25;2.62;;;13.20;99.90;;;;;;4356702;32;20074;-65
2021/06/05 00:21:03;;;;;;;4.82;2.92;;;13.20;99.90;;;;;;4349931;32;20074;-66
2021/06/05 00:23:29;;;;;;;6.20;2.70;;;13.30;99.90;;;;;;4350714;32;20167;-64
2021/06/05 00:25:55;;;;;;;4.28;2.72;;;13.30;99.90;;;;;;4347785;32;20074;-65
2021/06/05 00:28:23;;;;;;;4.10;2.70;;;13.20;99.90;;;;;;4334448;32;20085;-64
2021/06/05 00:30:49;;;;;;;6.18;2.80;;;13.20;99.90;;;;;;4345730;32;20154;-66
2021/06/05 00:33:15;;;;;;;4.15;2.75;;;13.20;99.90;;;;;;4348326;32;20067;-66
2021/06/05 00:35:41;;;;;;;4.57;2.58;;;13.30;99.90;;;;;;4352219;32;20111;-64
2021/06/05 00:38:08;;;;;;;5.20;2.60;;;13.30;99.90;;;;;;4361952;32;20453;-65
2021/06/05 00:40:38;;;;;;;4.60;2.08;;;13.30;99.90;;;;;;4350476;32;20073;-66
2021/06/05 00:43:05;;;;;;;3.47;2.40;;;13.20;99.90;;;;;;4333463;32;20089;-65
2021/06/05 00:45:34;;;;;;;5.35;2.55;;;13.30;99.90;;;;;;4347763;32;20074;-65
2021/06/05 00:48:01;;;;;;;4.15;2.53;;;13.30;99.90;;;;;;4335810;32;20081;-66
2021/06/05 00:50:28;;;;;;;5.05;2.83;;;13.20;99.90;;;;;;4347502;32;20452;-65
2021/06/05 00:52:54;;;;;;;5.95;2.60;;;13.20;99.90;;;;;;4344577;32;20063;-65
2021/06/05 00:55:24;;;;;;;4.97;2.47;;;13.20;99.90;;;;;;4350277;32;20086;-66
2021/06/05 00:57:50;;;;;;;5.12;2.90;;;13.20;99.90;;;;;;4334695;32;20097;-66
2021/06/05 01:00:31;;;;;;;4.28;2.75;;;13.30;99.90;;;;;;4347556;32;20452;-65
2021/06/05 01:03:01;;;;;;;4.03;2.47;;;13.30;99.90;;;;;;4347176;32;20171;-66
2021/06/05 01:05:28;;;;;;;6.68;2.87;;;13.30;99.90;;;;;;4337275;32;20512;-65
2021/06/05 01:07:57;;;;;;;6.37;2.70;;;13.20;99.90;;;;;;4332078;32;20106;-66
2021/06/05 01:10:27;;;;;;;4.07;2.20;;;13.20;99.90;;;;;;4318403;32;20079;-66
2021/06/05 01:13:08;;;;;;;5.25;2.70;;;13.20;99.90;;;;;;4340137;32;20086;-66
2021/06/05 01:15:51;;;;;;;3.00;2.60;;;13.20;99.90;;;;;;4329327;32;20595;-66
2021/06/05 01:18:38;;;;;;;5.53;2.70;;;13.20;99.90;;;;;;4330859;32;20159;-66
2021/06/05 01:21:41;;;;;;;4.25;2.60;;;13.10;99.90;;;;;;4359319;32;20066;-66
2021/06/05 01:24:25;;;;;;;4.70;2.83;;;13.10;99.90;;;;;;4353996;32;20135;-66
2021/06/05 01:26:58;;;;;;;3.90;2.47;;;13.10;99.90;;;;;;4359597;32;20063;-67
2021/06/05 01:29:36;;;;;;;6.12;3.03;;;13.10;99.90;;;;;;4334902;32;20084;-66
2021/06/05 01:32:07;;;;;;;6.72;2.60;;;13.10;99.90;;;;;;4335291;32;20074;-65
2021/06/05 01:34:44;;;;;;;4.00;2.65;;;13.10;99.90;;;;;;4353132;32;20426;-65
2021/06/05 01:37:11;;;;;;;4.10;2.45;;;13.10;99.90;;;;;;4334377;32;20062;-66
2021/06/05 01:39:39;;;;;;;5.45;2.95;;;13.10;99.90;;;;;;4332339;32;20094;-66
2021/06/05 01:42:10;;;;;;;7.68;3.10;;;13.20;99.90;;;;;;4336213;32;20163;-66
2021/06/05 01:44:37;;;;;;;3.90;2.80;;;13.20;99.90;;;;;;4348311;32;20089;-65
2021/06/05 01:47:03;;;;;;;6.05;2.90;;;13.10;99.90;;;;;;4346550;32;20078;-66
2021/06/05 01:49:30;;;;;;;3.92;2.12;;;13.20;99.90;;;;;;4336969;32;20575;-65
2021/06/05 01:52:00;;;;;;;6.28;2.78;;;13.20;99.90;;;;;;4342023;32;20157;-65
2021/06/05 01:54:45;;;;;;;4.62;2.90;;;13.30;99.90;;;;;;4338190;32;20076;-66
2021/06/05 01:57:15;;;;;;;7.40;3.15;;;13.40;99.90;;;;;;4325932;32;20133;-66
2021/06/05 01:59:43;;;;;;;7.25;2.97;;;13.40;99.90;;;;;;4337867;32;20155;-66
2021/06/05 02:02:09;;;;;;;9.05;3.10;;;13.30;99.90;;;;;;4350072;32;20539;-67
2021/06/05 02:04:36;;;;;;;8.77;3.10;;;13.40;99.90;;;;;;4358531;32;20130;-66
2021/06/05 02:07:04;;;;;;;4.93;2.62;;;13.40;99.90;;;;;;4337324;32;20501;-65
2021/06/05 02:09:30;;;;;;;5.45;2.37;;;13.50;99.90;;;;;;4327684;32;20086;-67
2021/06/05 02:12:21;;;;;;;3.72;2.60;;;13.60;99.90;;;;;;4342324;32;20093;-66
2021/06/05 02:15:25;;;;;;;4.07;2.40;;;13.50;99.90;;;;;;4359898;32;20516;-66
2021/06/05 02:17:52;;;;;;;6.80;2.40;;;13.70;99.90;;;;;;4350198;32;20090;-66
2021/06/05 02:20:51;;;;;;;5.65;2.60;;;13.70;99.90;;;;;;4344163;32;20066;-66
2021/06/05 02:23:24;;;;;;;6.53;2.75;;;13.90;99.90;;;;;;4348948;32;20082;-65
2021/06/05 02:25:53;;;;;;;10.55;3.00;;;13.80;99.90;;;;;;4326709;32;20171;-66
2021/06/05 02:28:19;;;;;;;3.45;2.37;;;13.80;99.90;;;;;;4348160;32;20074;-65
2021/06/05 02:30:45;;;;;;;3.60;2.50;;;13.90;99.90;;;;;;4349571;32;20071;-66
2021/06/05 02:33:12;;;;;;;4.22;2.60;;;13.80;99.90;;;;;;4337962;32;20062;-66
2021/06/05 02:35:41;;;;;;;4.20;2.60;;;13.80;99.90;;;;;;4337604;32;20078;-65
2021/06/05 02:38:07;;;;;;;7.75;2.80;;;13.90;99.90;;;;;;4348653;32;20215;-68
2021/06/05 02:40:36;;;;;;;8.35;3.17;;;14.00;99.90;;;;;;4333836;32;20093;-66
2021/06/05 02:43:06;;;;;;;4.82;2.60;;;13.90;99.90;;;;;;4348915;32;20098;-66
2021/06/05 02:45:42;;;;;;;6.72;2.83;;;13.90;99.90;;;;;;4349805;32;20429;-64
2021/06/05 02:48:08;;;;;;;4.37;2.60;;;13.90;99.90;;;;;;4343041;32;20109;-66
2021/06/05 02:50:41;;;;;;;4.57;2.67;;;14.00;99.90;;;;;;4349374;32;20516;-64
2021/06/05 02:53:08;;;;;;;4.65;2.90;;;14.20;99.90;;;;;;4361478;32;20167;-65
2021/06/05 02:55:34;;;;;;;7.15;2.87;;;14.40;99.90;;;;;;4341506;32;20175;-66
2021/06/05 02:58:01;;;;;;;5.87;2.53;;;14.40;99.90;;;;;;4351500;32;20074;-66
2021/06/05 03:00:40;;;;;;;7.00;2.40;;;14.40;99.90;;;;;;4336708;32;20517;-65
2021/06/05 03:03:11;;;;;;;5.00;2.60;;;14.50;99.90;;;;;;4348224;32;20140;-65
2021/06/05 03:05:37;;;;;;;3.83;2.15;;;14.50;99.90;;;;;;4330423;32;20146;-65
2021/06/05 03:08:06;;;;;;;6.07;2.45;;;14.50;99.90;;;;;;4345360;32;20465;-64
2021/06/05 03:10:32;;;;;;;5.20;2.50;;;14.60;99.90;;;;;;4364687;32;20160;-66
2021/06/05 03:13:00;;;;;;;3.78;2.75;;;14.70;99.90;;;;;;4350234;32;20183;-65
2021/06/05 03:15:27;;;;;;;5.40;2.30;;;14.60;99.90;;;;;;4336712;32;20434;-65
2021/06/05 03:17:54;;;;;;;3.83;2.22;;;14.70;99.90;;;;;;4346041;32;20089;-65
2021/06/05 03:20:23;;;;;;;3.33;2.60;;;14.60;99.90;;;;;;4346707;32;20501;-66
2021/06/05 03:22:49;;;;;;;4.70;2.40;;;14.70;99.90;;;;;;4327074;32;20244;-64
2021/06/05 03:25:17;;;;;;;5.37;2.40;;;14.80;99.90;;;;;;4348899;32;20086;-64
2021/06/05 03:27:44;;;;;;;3.95;2.45;;;14.60;99.90;;;;;;4337671;32;20159;-65
2021/06/05 03:30:11;;;;;;;4.10;2.40;;;14.60;99.90;;;;;;4336453;32;20063;-66
2021/06/05 03:32:37;;;;;;;5.87;2.50;;;14.60;99.90;;;;;;4336456;32;20547;-65
2021/06/05 03:35:05;;;;;;;4.53;2.35;;;14.60;99.90;;;;;;4347423;32;20519;-66
2021/06/05 03:37:31;;;;;;;3.17;2.03;;;14.60;99.90;;;;;;4344263;32;20089;-66
2021/06/05 03:39:57;;;;;;;3.08;2.05;;;14.70;99.90;;;;;;4330907;32;20528;-65
2021/06/05 03:42:23;;;;;;;5.03;2.33;;;14.90;99.90;;;;;;4331721;32;20117;-66
2021/06/05 03:44:49;;;;;;;4.93;2.20;;;14.70;99.90;;;;;;4360644;32;20071;-65
2021/06/05 03:47:19;;;;;;;6.40;2.45;;;14.70;99.90;;;;;;4336248;32;20162;-66
2021/06/05 03:49:45;;;;;;;4.97;2.60;;;14.80;99.90;;;;;;4337380;32;20092;-66
2021/06/05 03:52:11;;;;;;;6.25;2.37;;;15.00;99.90;;;;;;4342525;32;20521;-66
2021/06/05 03:54:37;;;;;;;4.68;2.30;;;15.00;99.90;;;;;;4357005;32;20078;-64
2021/06/05 03:57:05;;;;;;;5.10;2.42;;;14.90;99.90;;;;;;4335689;32;20089;-66
2021/06/05 03:59:31;;;;;;;2.65;2.05;;;15.00;99.90;;;;;;4360487;32;20059;-64
2021/06/05 04:01:57;;;;;;;6.87;2.62;;;15.00;99.90;;;;;;4348308;32;20074;-66
2021/06/05 04:04:23;;;;;;;4.20;2.97;;;15.10;99.90;;;;;;4345942;32;20511;-65
2021/06/05 04:06:51;;;;;;;4.10;2.30;;;15.20;99.90;;;;;;4338328;32;20085;-67
2021/06/05 04:09:17;;;;;;;3.75;2.35;;;15.00;99.90;;;;;;4348126;32;20085;-65
2021/06/05 04:11:43;;;;;;;3.12;2.53;;;15.00;99.90;;;;;;4348147;32;20177;-66
2021/06/05 04:14:10;;;;;;;3.55;2.40;;;15.20;99.90;;;;;;4328736;32;20082;-65
2021/06/05 04:16:36;;;;;;;4.10;2.60;;;15.40;99.90;;;;;;4361559;32;20069;-66
2021/06/05 04:19:02;;;;;;;4.22;2.25;;;15.50;99.90;;;;;;4347858;32;20451;-65
2021/06/05 04:21:29;;;;;;;6.53;2.45;;;15.50;99.90;;;;;;4360219;32;20125;-65
2021/06/05 04:23:55;;;;;;;5.57;2.55;;;15.90;99.90;;;;;;4335090;32;20450;-66
2021/06/05 04:26:21;;;;;;;2.53;2.10;;;15.80;99.90;;;;;;4347919;32;20086;-66
2021/06/05 04:28:48;;;;;;;3.87;2.50;;;16.00;99.90;;;;;;4343659;32;20149;-65
2021/06/05 04:31:14;;;;;;;2.65;1.50;;;16.10;99.90;;;;;;4348364;32;20073;-66
2021/06/05 04:33:40;;;;;;;3.70;2.30;;;15.90;99.90;;;;;;4361600;32;20150;-66
2021/06/05 04:36:10;;;;;;;3.58;2.50;;;16.20;99.90;;;;;;4328848;32;20492;-67
2021/06/05 04:38:37;;;;;;;3.15;2.33;;;16.50;99.90;;;;;;4354163;32;20113;-66
2021/06/05 04:41:04;;;;;;;5.37;2.47;;;17.00;99.90;;;;;;4334861;32;20067;-66
2021/06/05 04:43:31;;;;;;;6.22;2.40;;;16.50;99.90;;;;;;4350110;32;20073;-65
2021/06/05 04:45:57;;;;;;;3.62;2.20;;;16.70;99.90;;;;;;4360303;32;20073;-66
2021/06/05 04:48:24;;;;;;;4.93;2.72;;;16.30;99.90;;;;;;4359982;32;20146;-65
2021/06/05 04:50:51;;;;;;;3.30;2.35;;;16.70;99.90;;;;;;4335880;32;20535;-66
2021/06/05 04:53:18;;;;;;;4.75;2.75;;;16.40;99.90;;;;;;4348068;32;20509;-65
2021/06/05 04:55:44;;;;;;;5.70;2.53;;;16.80;99.90;;;;;;4351052;32;20070;-66
2021/06/05 04:58:11;;;;;;;3.37;2.50;;;17.20;99.90;;;;;;4337625;32;20055;-66
2021/06/05 05:00:40;;;;;;;2.92;2.17;;;18.70;99.90;;;;;;4348175;32;20077;-66
2021/06/05 05:03:07;;;;;;;3.12;2.40;;;18.70;99.90;;;;;;4334910;32;20543;-66
2021/06/05 05:05:34;;;;;;;3.25;2.42;;;19.20;99.90;;;;;;4347075;32;20078;-65
2021/06/05 05:08:00;;;;;;;3.90;2.35;;;20.10;99.90;;;;;;4339958;32;20082;-66
2021/06/05 05:10:30;;;;;;;6.75;3.00;;;19.00;99.90;;;;;;4330969;32;20070;-66
2021/06/05 05:12:56;;;;;;;4.50;2.83;;;18.50;99.90;;;;;;4338394;32;20144;-64
2021/06/05 05:15:23;;;;;;;4.78;2.50;;;18.40;99.90;;;;;;4323277;32;20070;-67
2021/06/05 05:17:49;;;;;;;4.18;2.65;;;18.10;99.90;;;;;;4335307;32;20161;-66
2021/06/05 05:20:20;;;;;;;4.30;2.70;;;17.50;99.90;;;;;;4336408;32;20059;-66
2021/06/05 05:22:47;;;;;;;4.20;2.50;;;18.20;99.90;;;;;;4335771;32;20063;-66
2021/06/05 05:25:13;;;;;;;5.72;2.75;;;17.80;99.90;;;;;;4361094;32;20082;-67
2021/06/05 05:27:40;;;;;;;3.80;2.60;;;18.00;99.90;;;;;;4337203;32;20079;-65
2021/06/05 05:30:12;;;;;;;5.43;2.70;;;18.20;99.90;;;;;;4338010;32;20093;-66
2021/06/05 05:32:38;;;;;;;4.43;2.85;;;18.10;99.90;;;;;;4359567;32;20167;-66
2021/06/05 05:35:05;;;;;;;4.10;2.90;;;18.20;99.90;;;;;;4337155;32;20074;-66
2021/06/05 05:37:31;;;;;;;6.60;2.58;;;18.00;99.90;;;;;;4352450;32;20131;-72
2021/06/05 05:39:58;;;;;;;7.50;2.92;;;19.60;99.90;;;;;;4341360;32;20077;-69
2021/06/05 05:42:24;;;;;;;6.45;2.65;;;21.00;99.90;;;;;;4349623;32;20117;-69
2021/06/05 05:44:50;;;;;;;4.05;2.65;;;20.60;99.90;;;;;;4351765;32;20584;-68
2021/06/05 05:47:16;;;;;;;4.65;2.55;;;20.50;99.90;;;;;;4351528;32;20116;-69
2021/06/05 05:49:43;;;;;;;5.07;2.67;;;20.30;99.90;;;;;;4353724;32;20058;-67
2021/06/05 05:52:09;;;;;;;4.32;2.30;;;20.30;99.90;;;;;;4359630;32;20153;-70
2021/06/05 05:54:35;;;;;;;6.80;2.35;;;20.80;99.90;;;;;;4337745;32;20546;-70
2021/06/05 05:57:01;;;;;;;5.82;2.67;;;21.20;99.90;;;;;;4338341;32;20096;-68
2021/06/05 05:59:28;;;;;;;5.15;2.47;;;22.20;98.90;;;;;;4348613;32;20101;-68
2021/06/05 06:01:54;;;;;;;5.00;2.53;;;21.90;99.70;;;;;;4350264;32;20435;-69
2021/06/05 06:04:20;;;;;;;7.12;3.75;;;22.40;96.80;;;;;;4337258;32;20113;-68
2021/06/05 06:06:46;;;;;;;6.18;2.80;;;22.50;96.80;;;;;;4346947;32;20183;-69
2021/06/05 06:09:14;;;;;;;4.40;3.05;;;22.70;96.00;;;;;;4360726;32;20114;-69
2021/06/05 06:11:43;;;;;;;5.12;2.45;;;21.90;97.80;;;;;;4350635;32;20106;-65
2021/06/05 06:14:10;;;;;;;5.82;3.08;;;21.10;98.50;;;;;;4363424;32;20169;-68
2021/06/05 06:16:36;;;;;;;11.25;2.95;;;20.90;99.90;;;;;;4356112;32;20105;-69
2021/06/05 06:19:03;;;;;;;3.90;2.50;;;22.20;99.90;;;;;;4344841;32;20078;-69
2021/06/05 06:21:30;;;;;;;3.45;2.28;;;22.60;98.40;;;;;;4346628;32;20078;-66
2021/06/05 06:23:56;;;;;;;3.65;2.45;;;21.50;99.90;;;;;;4329694;32;20248;-67
2021/06/05 06:26:26;;;;;;;6.05;2.62;;;20.60;99.90;;;;;;4342615;32;20075;-69
2021/06/05 06:28:53;;;;;;;8.02;3.17;;;21.20;99.90;;;;;;4335733;32;20085;-70
2021/06/05 06:31:20;;;;;;;4.70;2.65;;;21.50;99.90;;;;;;4349035;32;20527;-69
2021/06/05 06:33:47;;;;;;;4.97;2.75;;;20.70;99.90;;;;;;4342374;32;20074;-68
2021/06/05 06:36:13;;;;;;;5.12;2.58;;;20.00;99.90;;;;;;4331295;32;20180;-72
2021/06/05 06:38:42;;;;;;;5.47;2.92;;;19.60;99.90;;;;;;4346904;32;20121;-68
2021/06/05 06:41:13;;;;;;;6.35;3.20;;;19.90;99.90;;;;;;4360975;32;20461;-68
2021/06/05 06:43:39;;;;;;;6.75;3.00;;;19.50;99.90;;;;;;4364219;32;20122;-70
2021/06/05 06:46:13;;;;;;;8.45;3.00;;;20.00;99.90;;;;;;4345269;32;20070;-71
2021/06/05 06:48:39;;;;;;;4.53;2.53;;;20.70;99.90;;;;;;4357947;32;20552;-73
2021/06/05 06:51:05;;;;;;;4.03;2.83;;;20.70;99.90;;;;;;4363415;32;20102;-73
2021/06/05 06:53:35;;;;;;;5.32;2.85;;;21.00;99.90;;;;;;4345968;32;20444;-70
2021/06/05 06:56:02;;;;;;;3.83;2.97;;;21.00;99.90;;;;;;4335533;32;20709;-73
2021/06/05 06:58:29;;;;;;;5.87;2.95;;;21.70;99.90;;;;;;4346134;32;20069;-72
2021/06/05 07:00:55;;;;;;;5.55;3.35;;;21.20;99.90;;;;;;4350112;32;20183;-68
2021/06/05 07:03:21;;;;;;;5.72;3.22;;;21.00;99.90;;;;;;4341409;32;20063;-71
2021/06/05 07:05:48;;;;;;;4.65;3.20;;;21.40;99.90;;;;;;4350017;32;20498;-70
2021/06/05 07:08:20;;;;;;;4.20;2.80;;;21.20;99.90;;;;;;4329705;32;20150;-70
2021/06/05 07:10:49;;;;;;;5.03;2.60;;;21.50;99.90;;;;;;4347193;32;20073;-73
2021/06/05 07:13:15;;;;;;;6.47;3.45;;;21.30;99.90;;;;;;4353524;32;20071;-72
2021/06/05 07:15:42;;;;;;;4.87;3.35;;;20.80;99.90;;;;;;4323866;32;20083;-72
2021/06/05 07:18:09;;;;;;;5.57;2.75;;;19.80;99.90;;;;;;4334925;32;20082;-72
2021/06/05 07:20:36;;;;;;;4.45;3.10;;;20.30;99.90;;;;;;4338168;32;20456;-72
2021/06/05 07:23:02;;;;;;;7.55;3.28;;;20.90;99.90;;;;;;4335597;32;20070;-72
2021/06/05 07:25:29;;;;;;;4.55;2.70;;;19.90;99.90;;;;;;4336241;32;20201;-74
2021/06/05 07:27:56;;;;;;;6.28;3.10;;;20.50;99.90;;;;;;4341604;32;20059;-71
2021/06/05 07:30:23;;;;;;;5.72;3.70;;;20.40;99.90;;;;;;4345551;32;20082;-72
2021/06/05 07:32:50;;;;;;;5.03;3.25;;;20.10;99.90;;;;;;4335244;32;20150;-73
2021/06/05 07:35:17;;;;;;;7.85;3.50;;;21.10;99.90;;;;;;4347882;32;20179;-73
2021/06/05 07:37:43;;;;;;;6.62;3.65;;;21.60;99.90;;;;;;4337213;32;20090;-75
2021/06/05 07:40:10;;;;;;;5.87;3.53;;;21.00;99.90;;;;;;4346398;32;20084;-72
2021/06/05 07:42:37;;;;;;;6.78;3.50;;;20.60;99.90;;;;;;4342182;32;20089;-75
2021/06/05 07:45:06;;;;;;;6.62;3.37;;;20.80;99.90;;;;;;4346830;32;20055;-73
2021/06/05 07:47:32;;;;;;;6.85;3.78;;;20.10;99.90;;;;;;4345455;32;20081;-76
2021/06/05 07:49:59;;;;;;;7.53;3.90;;;20.10;99.90;;;;;;4343099;32;20159;-69
2021/06/05 07:52:25;;;;;;;8.07;3.42;;;20.00;99.90;;;;;;4346459;32;20083;-69
2021/06/05 07:54:54;;;;;;;6.37;3.83;;;20.50;99.90;;;;;;4353781;32;20157;-69
2021/06/05 07:57:23;;;;;;;4.72;3.47;;;19.80;99.90;;;;;;4354848;32;20102;-67
2021/06/05 07:59:49;;;;;;;6.60;3.80;;;19.90;99.90;;;;;;4346647;32;20066;-73
2021/06/05 08:02:16;;;;;;;6.25;4.00;;;21.10;99.90;;;;;;4352695;32;20065;-68
2021/06/05 08:04:42;;;;;;;7.43;3.83;;;21.00;99.90;;;;;;4335188;32;20067;-73
2021/06/05 08:07:09;;;;;;;6.72;3.83;;;20.20;99.90;;;;;;4346041;32;20487;-69
2021/06/05 08:09:35;;;;;;;5.70;4.07;;;20.90;99.90;;;;;;4332710;32;20066;-68
2021/06/05 08:12:01;;;;;;;5.25;3.60;;;20.20;99.90;;;;;;4346951;32;20102;-74
2021/06/05 08:14:28;;;;;;;7.07;3.72;;;20.80;99.90;;;;;;4344305;32;20196;-71
2021/06/05 08:16:54;;;;;;;10.00;4.50;;;21.30;99.90;;;;;;4351286;32;20619;-72
2021/06/05 08:19:21;;;;;;;9.73;3.78;;;20.20;99.90;;;;;;4334401;32;20086;-68
2021/06/05 08:21:47;;;;;;;4.85;3.55;;;20.60;99.90;;;;;;4358589;32;20065;-69
2021/06/05 08:24:15;;;;;;;8.10;4.43;;;21.00;99.90;;;;;;4353732;32;20090;-74
2021/06/05 08:26:41;;;;;;;8.40;3.90;;;20.50;99.90;;;;;;4361853;32;20051;-72
2021/06/05 08:29:08;;;;;;;6.35;4.00;;;21.30;99.90;;;;;;4348635;32;20077;-72
2021/06/05 08:31:34;;;;;;;5.57;3.80;;;21.90;99.90;;;;;;4356835;32;20429;-68
2021/06/05 08:34:01;;;;;;;7.93;3.97;;;21.60;99.90;;;;;;4331416;32;20090;-68
2021/06/05 08:36:28;;;;;;;7.22;3.97;;;21.80;99.90;;;;;;4331881;32;20589;-70
2021/06/05 08:38:54;;;;;;;11.45;4.55;;;21.40;99.90;;;;;;4354666;32;20086;-68
2021/06/05 08:41:46;;;;;;;12.60;5.12;;;21.00;99.90;;;;;;4364985;32;20155;-68
2021/06/05 08:44:37;;;;;;;6.87;4.55;;;21.10;99.90;;;;;;4348683;32;20207;-69
2021/06/05 08:47:09;;;;;;;10.48;5.25;;;21.30;99.90;;;;;;4366737;32;20640;-69
2021/06/05 08:49:39;;;;;;;7.68;4.85;;;21.20;98.80;;;;;;4364384;32;20094;-70
2021/06/05 08:52:17;;;;;;;6.85;4.22;;;21.30;99.90;;;;;;4349392;32;20030;-69
2021/06/05 08:54:53;;;;;;;8.55;4.90;;;21.20;99.90;;;;;;4354431;32;20077;-68
2021/06/05 08:57:45;;;;;;;5.63;4.33;;;20.60;99.90;;;;;;4353006;32;20082;-70
2021/06/05 09:00:28;;;;;;;8.25;4.30;;;21.20;99.90;;;;;;4370409;32;20253;-67
2021/06/05 09:03:20;;;;;;;7.00;3.67;;;21.60;99.70;;;;;;4361109;32;20460;-72
2021/06/05 09:06:03;;;;;;;6.03;3.53;;;21.90;99.90;;;;;;4350937;32;20078;-71
2021/06/05 09:08:30;;;;;;;7.45;4.00;;;21.30;99.90;;;;;;4340289;32;20241;-69
2021/06/05 09:10:59;;;;;;;5.82;3.40;;;21.40;99.90;;;;;;4362803;32;20535;-69
2021/06/05 09:13:25;;;;;;;7.28;3.60;;;21.70;99.90;;;;;;4335111;32;20086;-70
2021/06/05 09:16:21;;;;;;;7.00;3.83;;;21.70;99.20;;;;;;4317166;32;20137;-69
2021/06/05 09:18:49;;;;;;;5.12;3.72;;;21.60;99.90;;;;;;4375918;32;20077;-69
2021/06/05 09:21:29;;;;;;;7.20;4.07;;;21.40;99.90;;;;;;4336957;32;20090;-68
2021/06/05 09:24:13;;;;;;;5.50;3.58;;;21.10;99.90;;;;;;4336160;32;20133;-68
2021/06/05 09:26:39;;;;;;;6.03;3.28;;;21.80;99.70;;;;;;4344581;32;20081;-70
2021/06/05 09:29:17;;;;;;;5.37;3.92;;;23.20;92.30;;;;;;4349090;32;20109;-70
2021/06/05 09:31:58;;;;;;;7.25;3.97;;;23.70;90.20;;;;;;4366448;32;20149;-69
2021/06/05 09:34:36;;;;;;;4.93;3.75;;;24.00;81.20;;;;;;4345855;32;20179;-69
2021/06/05 09:37:03;;;;;;;5.28;3.12;;;23.50;83.30;;;;;;4341767;32;20077;-69
2021/06/05 09:39:42;;;;;;;7.68;3.58;;;22.60;92.80;;;;;;4333250;32;20116;-70
2021/06/05 09:42:11;;;;;;;5.43;3.80;;;23.40;86.30;;;;;;4353626;32;20074;-69
2021/06/05 09:44:44;;;;;;;6.40;3.70;;;23.40;84.30;;;;;;4356701;32;20074;-69
2021/06/05 09:47:17;;;;;;;4.97;3.28;;;23.70;88.40;;;;;;4347313;32;20513;-70
2021/06/05 09:49:50;;;;;;;5.97;3.55;;;24.30;77.90;;;;;;4335035;32;20631;-69
2021/06/05 09:52:31;;;;;;;6.82;3.30;;;23.90;83.00;;;;;;4325549;32;20058;-69
2021/06/05 09:55:21;;;;;;;5.62;3.40;;;22.60;90.80;;;;;;4345948;32;20075;-69
2021/06/05 09:57:49;;;;;;;9.45;3.92;;;22.30;93.30;;;;;;4333949;32;20065;-69
2021/06/05 10:00:16;;;;;;;7.03;2.97;;;23.20;90.30;;;;;;4334924;32;20547;-69
2021/06/05 10:02:49;;;;;;;7.18;3.53;;;23.30;85.00;;;;;;4344871;32;20179;-70
2021/06/05 10:05:36;;;;;;;6.25;3.97;;;22.90;91.10;;;;;;4311431;32;20091;-68
2021/06/05 10:08:39;;;;;;;5.78;3.53;;;22.90;90.20;;;;;;4340567;32;20079;-69
2021/06/05 10:11:24;;;;;;;9.85;3.55;;;23.50;88.50;;;;;;4348295;32;20109;-69
2021/06/05 10:14:13;;;;;;;5.45;3.67;;;22.80;90.10;;;;;;4363356;32;20180;-69
2021/06/05 10:16:45;;;;;;;6.78;3.53;;;23.50;87.20;;;;;;4346891;32;20077;-69
2021/06/05 10:19:23;;;;;;;6.20;3.20;;;24.30;83.10;;;;;;4350139;32;20493;-70
2021/06/05 10:21:49;;;;;;;6.25;3.53;;;23.80;82.10;;;;;;4353706;32;20059;-69
2021/06/05 10:24:21;;;;;;;4.47;3.08;;;24.10;77.00;;;;;;4349776;32;20055;-69
2021/06/05 10:26:48;;;;;;;6.40;3.50;;;24.00;74.10;;;;;;4376178;32;20074;-70
2021/06/05 10:29:45;;;;;;;6.47;3.60;;;23.70;77.50;;;;;;4351846;32;20062;-69
2021/06/05 10:32:16;;;;;;;;;;;23.30;85.20;;;;;;4349849;32;20085;-70
2021/06/05 10:34:52;;;;;;;5.95;3.30;;;24.00;77.30;;;;;;4361911;32;19973;-71
2021/06/05 10:37:24;;;;;;;6.45;3.58;;;24.00;76.20;;;;;;4333764;32;20515;-70
2021/06/05 10:39:51;;;;;;;3.65;2.72;;;23.90;74.40;;;;;;4341511;32;20497;-70
2021/06/05 10:42:23;;;;;;;5.68;3.10;;;24.40;73.70;;;;;;4344793;32;20106;-71
2021/06/05 10:44:49;;;;;;;5.10;3.12;;;24.50;71.60;;;;;;4361878;32;20066;-69
2021/06/05 10:47:27;;;;;;;5.20;3.25;;;24.40;73.30;;;;;;4349136;32;20066;-69
2021/06/05 10:50:21;;;;;;;6.20;3.25;;;23.20;80.40;;;;;;4338145;32;20063;-69
2021/06/05 10:53:40;;;;;;;6.25;3.22;;;23.20;86.30;;;;;;4352315;32;20102;-70
2021/06/05 10:56:30;;;;;;;5.05;2.90;;;23.50;78.70;;;;;;4338740;32;20066;-69
2021/06/05 10:58:56;;;;;;;5.68;3.30;;;24.50;74.30;;;;;;4336337;32;20164;-70
2021/06/05 11:01:40;;;;;;;5.30;2.87;;;24.90;70.60;;;;;;4351255;32;20075;-70
2021/06/05 11:04:27;;;;;;;5.03;2.97;;;24.40;67.50;;;;;;4371105;32;20533;-71
2021/06/05 11:06:53;;;;;;;;;;;24.20;74.20;;;;;;4338024;32;20105;-70
2021/06/05 11:09:31;;;;;;;4.78;3.20;;;23.90;72.90;;;;;;4374194;32;20479;-70
2021/06/05 11:12:04;;;;;;;6.03;3.53;;;23.80;74.40;;;;;;4353558;32;20162;-69
2021/06/05 11:14:36;;;;;;;6.40;3.62;;;24.00;74.00;;;;;;4348814;32;20102;-69
2021/06/05 11:17:10;;;;;;;3.78;2.72;;;24.10;70.70;;;;;;4361263;32;20159;-70
2021/06/05 11:19:50;;;;;;;7.62;3.30;;;24.00;69.80;;;;;;4357373;32;20138;-70
2021/06/05 11:22:25;;;;;;;5.87;3.10;;;23.40;74.20;;;;;;4349850;32;20082;-69
2021/06/05 11:25:06;;;;;;;5.85;3.20;;;24.20;72.20;;;;;;4336728;32;20074;-70
2021/06/05 11:27:38;;;;;;;5.05;2.90;;;24.50;66.90;;;;;;4362265;32;20071;-70
2021/06/05 11:30:29;;;;;;;6.90;3.00;;;22.70;78.90;;;;;;4354330;32;20071;-70
2021/06/05 11:33:06;;;;;;;5.60;3.08;;;23.30;79.70;;;;;;4358136;32;20082;-70
2021/06/05 11:35:54;;;;;;;6.10;3.55;;;24.40;73.20;;;;;;4326192;32;20074;-69
2021/06/05 11:38:20;;;;;;;5.97;3.00;;;24.20;71.80;;;;;;4353829;32;20065;-68
2021/06/05 11:41:07;;;;;;;3.60;2.72;;;23.00;75.30;;;;;;4363041;32;20156;-68
2021/06/05 11:43:33;;;;;;;4.62;2.75;;;23.50;75.70;;;;;;4331221;32;20469;-70
2021/06/05 11:46:23;;;;;;;5.97;2.97;;;23.70;68.70;;;;;;4362326;32;20085;-69
2021/06/05 11:48:54;;;;;;;6.00;3.00;;;23.50;72.20;;;;;;4359502;32;20090;-70
2021/06/05 11:51:20;;;;;;;4.40;2.85;;;22.90;73.10;;;;;;4324898;32;20070;-70
2021/06/05 11:54:02;;;;;;;5.03;2.70;;;23.30;75.00;;;;;;4368526;32;20074;-69
2021/06/05 11:56:33;;;;;;;4.72;2.70;;;24.20;67.20;;;;;;4349674;32;20077;-70
2021/06/05 11:59:25;;;;;;;4.55;2.85;;;24.80;67.40;;;;;;4339599;32;20094;-69
2021/06/05 12:01:52;;;;;;;4.87;2.62;;;25.10;62.30;;;;;;4336356;32;20085;-71
2021/06/05 12:04:21;;;;;;;6.47;2.80;;;24.80;60.40;;;;;;4336424;32;20163;-69
2021/06/05 12:06:49;;;;;;;4.12;2.78;;;24.90;61.40;;;;;;4345843;32;20456;-69
2021/06/05 12:09:21;;;;;;;4.28;3.05;;;24.10;64.20;;;;;;4311906;32;20154;-70
2021/06/05 12:11:54;;;;;;;3.85;2.22;;;23.50;68.00;;;;;;4324169;32;20159;-71
2021/06/05 12:14:46;;;;;;;3.83;2.65;;;23.30;73.40;;;;;;4352475;32;20504;-70
2021/06/05 12:17:33;;;;;;;4.72;3.05;;;24.20;66.20;;;;;;4350622;32;20168;-70
2021/06/05 12:20:18;;;;;;;4.72;2.83;;;24.70;62.70;;;;;;4336563;32;20148;-68
2021/06/05 12:22:48;;;;;;;4.70;3.00;;;25.20;59.70;;;;;;4347558;32;20457;-70
2021/06/05 12:25:35;;;;;;;4.85;2.80;;;25.20;60.00;;;;;;4347903;32;20484;-70
2021/06/05 12:28:10;;;;;;;5.35;2.90;;;24.80;60.50;;;;;;4347328;32;20539;-70
2021/06/05 12:30:40;;;;;;;5.32;2.90;;;24.60;61.50;;;;;;4335928;32;20075;-70
2021/06/05 12:33:08;;;;;;;5.07;2.40;;;24.80;62.20;;;;;;4349641;32;20561;-70
2021/06/05 12:35:46;;;;;;;6.12;2.47;;;23.70;66.00;;;;;;4333106;32;20082;-70
2021/06/05 12:38:38;;;;;;;4.15;2.42;;;23.10;70.30;;;;;;4348176;32;20071;-70
2021/06/05 12:41:13;;;;;;;6.28;2.45;;;22.80;71.20;;;;;;4347736;32;20169;-70
2021/06/05 12:43:43;;;;;;;7.05;2.65;;;23.10;72.40;;;;;;4327713;32;20092;-70
2021/06/05 12:46:13;;;;;;;5.40;2.60;;;23.70;66.40;;;;;;4336055;32;20149;-69
2021/06/05 12:48:40;;;;;;;4.30;2.62;;;23.90;68.30;;;;;;4335752;32;20080;-68
2021/06/05 12:51:07;;;;;;;4.65;2.53;;;23.60;70.50;;;;;;4347183;32;20587;-70
2021/06/05 12:53:34;;;;;;;4.87;2.80;;;23.20;71.10;;;;;;4337737;32;20062;-70
2021/06/05 12:56:47;;;;;;;3.60;2.60;;;23.60;67.50;;;;;;4321588;32;20077;-70
2021/06/05 12:59:16;;;;;;;4.32;3.20;;;23.70;69.50;;;;;;4351516;32;20452;-70
2021/06/05 13:01:45;;;;;;;4.78;2.58;;;23.20;68.40;;;;;;4348163;32;20441;-69
2021/06/05 13:04:38;;;;;;;4.70;2.72;;;23.10;69.80;;;;;;4341483;32;20520;-69
2021/06/05 13:09:45;;;;;;;4.30;2.20;;;23.80;65.00;;;;;;3857472;37;20065;-70
2021/06/05 13:12:21;;;;;;;5.60;2.35;;;23.60;64.80;;;;;;4391669;32;20069;-70